Elim, Alaska
Current Conditions -  °F | °C
As of 11:58 PM on Sunday 23 Nov 2014 (Local Time) from PFEL Reporting Station
Clear Clear  
Wind Chill: -3°   Ceiling: Unl
Heat Index: 10°   Visibility: 10mi
Dew Point: -5°   Wind: 9mph
Humidity: 51%   Direction: 360°N
Pressure: 29.7"   Gusts: NA
Location:  64.62°N, 162.27°W
Report Text: PFEL 240858Z AUTO 36008KT 10SM CLR M12/M21 A2970 RMK AO2 SLP061 T11221206 53012 FZRANO
Loading
Personal Weather Stations






























Interactive Weather Map New forecast layout! Learn more

10-Day Weather Forecast

Advertisements
Track Severe Weather on mobile